Time;durP1;ratioP1;P1;durP2;ratioP2;P2;SDS_P1;SDS_P2;PMS_P1;PMS_P2;Temp;Humidity;BMP_temperature;BMP_pressure;BME280_temperature;BME280_humidity;BME280_pressure;Samples;Min_cycle;Max_cycle;Signal;HPM_P1;HPM_P2
2023/07/31 00:01:53;;;;;;;11.15;4.35;;;19.90;99.90;;;;;;4990129;28;20673;-24
2023/07/31 00:04:23;;;;;;;10.03;4.50;;;19.80;99.90;;;;;;5024447;28;20228;-24
2023/07/31 00:06:53;;;;;;;10.07;4.43;;;19.90;99.90;;;;;;5026659;28;20215;-24
2023/07/31 00:09:20;;;;;;;8.20;4.22;;;19.80;99.90;;;;;;5026935;28;20197;-24
2023/07/31 00:11:49;;;;;;;12.43;4.60;;;19.80;99.90;;;;;;5025855;28;20738;-25
2023/07/31 00:14:29;;;;;;;9.90;4.07;;;19.90;99.90;;;;;;5027177;28;20251;-31
2023/07/31 00:16:58;;;;;;;10.48;4.43;;;19.90;99.90;;;;;;5025763;28;20216;-31
2023/07/31 00:19:25;;;;;;;9.80;4.00;;;19.90;99.90;;;;;;5027126;28;20239;-31
2023/07/31 00:21:52;;;;;;;6.40;4.10;;;19.90;99.90;;;;;;5025230;28;20204;-31
2023/07/31 00:24:20;;;;;;;11.05;4.20;;;19.90;99.90;;;;;;5027327;28;20267;-31
2023/07/31 00:26:47;;;;;;;10.10;4.60;;;19.90;99.90;;;;;;5028522;28;20278;-24
2023/07/31 00:29:14;;;;;;;10.55;4.53;;;19.90;99.90;;;;;;5042439;28;20227;-31
2023/07/31 00:31:41;;;;;;;12.25;4.05;;;19.90;99.90;;;;;;5027161;28;20551;-31
2023/07/31 00:34:11;;;;;;;9.77;4.60;;;19.90;99.90;;;;;;5042091;28;20672;-31
2023/07/31 00:36:38;;;;;;;9.07;4.65;;;20.00;99.90;;;;;;5041815;28;20216;-31
2023/07/31 00:39:06;;;;;;;9.65;4.70;;;20.00;99.90;;;;;;5040314;28;20282;-32
2023/07/31 00:41:33;;;;;;;9.98;4.47;;;19.90;99.90;;;;;;5025477;28;20208;-31
2023/07/31 00:44:03;;;;;;;9.85;4.35;;;20.00;99.90;;;;;;5026885;28;20817;-31
2023/07/31 00:46:30;;;;;;;7.35;4.28;;;20.00;99.90;;;;;;5008918;28;20604;-31
2023/07/31 00:49:00;;;;;;;10.10;4.25;;;20.00;99.90;;;;;;5027070;28;20208;-31
2023/07/31 00:51:30;;;;;;;8.98;4.35;;;20.00;99.90;;;;;;5026816;28;20259;-31
2023/07/31 00:54:00;;;;;;;11.82;4.60;;;20.00;99.90;;;;;;5024777;28;20240;-31
2023/07/31 00:56:28;;;;;;;10.85;4.57;;;20.00;99.90;;;;;;5025700;28;20693;-31
2023/07/31 00:59:00;;;;;;;9.85;4.95;;;20.00;99.90;;;;;;5023045;28;20209;-31
2023/07/31 01:01:28;;;;;;;7.95;4.53;;;20.00;99.90;;;;;;5024633;28;20561;-30
2023/07/31 01:03:57;;;;;;;11.80;4.50;;;20.00;99.90;;;;;;5020268;28;20221;-31
2023/07/31 01:06:44;;;;;;;11.57;4.38;;;20.00;99.90;;;;;;5010032;28;20206;-31
2023/07/31 01:09:11;;;;;;;11.98;4.30;;;20.10;99.90;;;;;;5015040;28;20236;-30
2023/07/31 01:11:46;;;;;;;10.63;4.18;;;20.10;99.90;;;;;;5023165;28;20727;-31
2023/07/31 01:14:14;;;;;;;8.65;4.22;;;20.10;99.90;;;;;;5007908;28;20225;-30
2023/07/31 01:16:43;;;;;;;10.07;4.22;;;20.10;99.90;;;;;;5020168;28;20206;-30
2023/07/31 01:19:12;;;;;;;10.02;4.25;;;20.10;99.90;;;;;;5007377;28;20222;-30
2023/07/31 01:22:01;;;;;;;11.93;4.78;;;20.10;99.90;;;;;;5025936;28;20197;-30
2023/07/31 01:24:52;;;;;;;9.68;4.25;;;20.10;99.90;;;;;;5012475;28;20201;-31
2023/07/31 01:27:27;;;;;;;10.55;4.85;;;20.10;99.90;;;;;;5012379;28;20221;-31
2023/07/31 01:30:10;;;;;;;8.98;4.10;;;20.10;99.90;;;;;;5041023;28;20236;-31
2023/07/31 01:32:42;;;;;;;9.25;4.32;;;20.10;99.90;;;;;;5029331;28;20343;-31
2023/07/31 01:35:09;;;;;;;9.30;4.47;;;20.10;99.90;;;;;;5029866;28;20213;-31
2023/07/31 01:37:36;;;;;;;8.93;4.18;;;20.10;99.90;;;;;;5011658;28;20224;-31
2023/07/31 01:40:06;;;;;;;9.25;4.93;;;20.10;99.90;;;;;;5028879;28;20229;-31
2023/07/31 01:42:33;;;;;;;8.98;3.95;;;20.10;99.90;;;;;;5029950;28;20209;-31
2023/07/31 01:45:03;;;;;;;12.93;4.80;;;20.10;99.90;;;;;;5029941;28;20209;-31
2023/07/31 01:47:30;;;;;;;10.43;4.47;;;20.10;99.90;;;;;;5030157;28;20208;-31
2023/07/31 01:49:58;;;;;;;8.52;4.07;;;20.10;99.90;;;;;;5029889;28;20220;-31
2023/07/31 01:52:25;;;;;;;8.82;4.35;;;20.10;99.90;;;;;;5029065;28;20244;-25
2023/07/31 01:54:52;;;;;;;7.75;4.30;;;20.10;99.90;;;;;;5028399;28;20757;-25
2023/07/31 01:57:19;;;;;;;9.75;4.40;;;20.10;99.90;;;;;;5028241;28;20274;-24
2023/07/31 01:59:47;;;;;;;6.95;3.88;;;20.10;99.90;;;;;;5029780;28;20642;-24
2023/07/31 02:02:14;;;;;;;7.97;4.22;;;20.10;99.90;;;;;;5028100;28;20500;-24
2023/07/31 02:04:44;;;;;;;7.97;4.38;;;20.20;99.90;;;;;;5028817;28;20205;-24
2023/07/31 02:07:11;;;;;;;9.07;4.40;;;20.20;99.90;;;;;;5027561;28;20208;-24
2023/07/31 02:09:38;;;;;;;8.18;4.30;;;20.20;99.90;;;;;;5028583;28;20240;-24
2023/07/31 02:12:08;;;;;;;6.95;4.45;;;20.20;99.90;;;;;;5029279;28;20583;-24
2023/07/31 02:14:35;;;;;;;10.75;4.82;;;20.20;99.90;;;;;;5027738;28;20232;-24
2023/07/31 02:17:05;;;;;;;7.13;4.25;;;20.20;99.90;;;;;;5027478;28;20247;-25
2023/07/31 02:19:32;;;;;;;9.68;4.25;;;20.20;99.90;;;;;;5029382;28;20205;-24
2023/07/31 02:21:59;;;;;;;9.48;4.55;;;20.20;99.90;;;;;;5029077;28;20204;-24
2023/07/31 02:24:28;;;;;;;7.78;4.53;;;20.20;99.90;;;;;;5028126;28;20220;-24
2023/07/31 02:26:57;;;;;;;7.40;4.13;;;20.20;99.90;;;;;;5011581;28;20543;-24
2023/07/31 02:29:24;;;;;;;9.35;4.63;;;20.20;99.90;;;;;;5017193;28;20605;-24
2023/07/31 02:31:54;;;;;;;7.32;4.22;;;20.20;99.90;;;;;;5024040;28;20723;-25
2023/07/31 02:34:23;;;;;;;9.68;5.22;;;20.20;99.90;;;;;;5007959;28;20225;-24
2023/07/31 02:36:50;;;;;;;11.52;4.50;;;20.20;99.90;;;;;;5007627;28;20210;-24
2023/07/31 02:39:17;;;;;;;10.23;4.72;;;20.20;99.90;;;;;;5007854;28;20291;-24
2023/07/31 02:41:45;;;;;;;9.30;5.05;;;20.20;99.90;;;;;;5007682;28;20749;-24
2023/07/31 02:44:14;;;;;;;11.02;4.72;;;20.20;99.90;;;;;;5008839;28;20209;-24
2023/07/31 02:46:42;;;;;;;8.20;4.60;;;20.20;99.90;;;;;;4991504;28;20255;-24
2023/07/31 02:49:09;;;;;;;7.47;4.40;;;20.20;99.90;;;;;;4991485;28;20216;-24
2023/07/31 02:51:36;;;;;;;7.65;4.85;;;20.20;99.90;;;;;;5007406;28;20240;-24
2023/07/31 02:54:03;;;;;;;6.68;4.53;;;20.30;99.90;;;;;;5006779;28;20641;-24
2023/07/31 02:56:31;;;;;;;8.48;4.78;;;20.30;99.90;;;;;;5006952;28;20193;-24
2023/07/31 02:59:00;;;;;;;7.70;4.38;;;20.30;99.90;;;;;;5007402;28;20212;-24
2023/07/31 03:01:27;;;;;;;6.95;4.03;;;20.30;99.90;;;;;;4991668;28;20565;-24
2023/07/31 03:03:57;;;;;;;7.57;4.13;;;20.30;99.90;;;;;;5008911;28;20232;-24
2023/07/31 03:06:24;;;;;;;7.85;4.30;;;20.30;99.90;;;;;;5008553;28;20599;-24
2023/07/31 03:08:51;;;;;;;7.35;3.83;;;20.30;99.90;;;;;;5008155;28;20202;-24
2023/07/31 03:11:21;;;;;;;8.05;3.97;;;20.30;99.90;;;;;;5008877;28;20213;-24
2023/07/31 03:13:50;;;;;;;5.60;3.65;;;20.30;99.90;;;;;;5008764;28;20610;-24
2023/07/31 03:16:17;;;;;;;6.90;4.50;;;20.30;99.90;;;;;;4991041;28;20237;-24
2023/07/31 03:18:45;;;;;;;9.40;4.13;;;20.40;99.90;;;;;;5006992;28;20202;-24
2023/07/31 03:21:15;;;;;;;6.63;4.20;;;20.40;99.90;;;;;;5008273;28;20744;-25
2023/07/31 03:23:43;;;;;;;8.05;3.70;;;20.40;99.90;;;;;;5005999;28;20264;-24
2023/07/31 03:26:13;;;;;;;5.97;4.32;;;20.40;99.90;;;;;;5007247;28;20710;-24
2023/07/31 03:28:40;;;;;;;7.25;4.25;;;20.40;99.90;;;;;;5039041;28;20209;-24
2023/07/31 03:31:08;;;;;;;4.93;3.80;;;20.40;99.90;;;;;;5026596;28;20291;-25
2023/07/31 03:33:35;;;;;;;8.15;3.60;;;20.40;99.90;;;;;;5027742;28;20201;-25
2023/07/31 03:36:03;;;;;;;6.05;3.70;;;20.40;99.90;;;;;;5026204;28;20736;-24
2023/07/31 03:38:30;;;;;;;5.82;3.80;;;20.40;99.90;;;;;;5026754;28;20299;-24
2023/07/31 03:40:58;;;;;;;8.95;4.15;;;20.40;99.90;;;;;;5042944;28;20205;-24
2023/07/31 03:43:29;;;;;;;7.78;3.95;;;20.40;99.90;;;;;;5027473;28;20309;-24
2023/07/31 03:45:56;;;;;;;6.72;4.15;;;20.40;99.90;;;;;;5043792;28;20220;-31
2023/07/31 03:48:26;;;;;;;5.65;3.45;;;20.40;99.90;;;;;;5027630;28;20196;-31
2023/07/31 03:50:53;;;;;;;8.38;3.88;;;20.40;99.90;;;;;;5026074;28;20197;-31
2023/07/31 03:53:25;;;;;;;6.18;4.07;;;20.40;99.90;;;;;;5027409;28;20310;-24
2023/07/31 03:55:53;;;;;;;5.78;3.80;;;20.40;99.90;;;;;;5026137;28;20755;-25
2023/07/31 03:58:20;;;;;;;7.15;3.65;;;20.40;99.90;;;;;;5042234;28;20262;-24
2023/07/31 04:00:49;;;;;;;5.78;3.70;;;20.40;99.90;;;;;;5042369;28;20201;-24
2023/07/31 04:03:19;;;;;;;7.40;3.55;;;20.40;99.90;;;;;;5042353;28;20626;-24
2023/07/31 04:05:49;;;;;;;6.15;4.22;;;20.30;99.90;;;;;;5027736;28;20213;-24
2023/07/31 04:08:16;;;;;;;6.80;3.63;;;20.30;99.90;;;;;;5026587;28;20222;-24
2023/07/31 04:10:47;;;;;;;5.47;3.65;;;20.30;99.90;;;;;;5042743;28;20204;-24
2023/07/31 04:13:19;;;;;;;6.93;3.72;;;20.30;99.90;;;;;;5027503;28;20258;-24
2023/07/31 04:15:54;;;;;;;5.25;3.70;;;20.30;99.90;;;;;;5025775;28;20231;-24
2023/07/31 04:18:25;;;;;;;6.60;3.92;;;20.30;99.90;;;;;;5027529;28;20208;-24
2023/07/31 04:20:52;;;;;;;5.07;3.50;;;20.30;99.90;;;;;;5042744;28;20555;-24
2023/07/31 04:23:19;;;;;;;5.50;3.63;;;20.30;99.90;;;;;;5025329;28;20203;-24
2023/07/31 04:25:46;;;;;;;5.65;3.58;;;20.30;99.90;;;;;;5021705;28;20205;-24
2023/07/31 04:28:16;;;;;;;7.65;3.35;;;20.30;99.90;;;;;;5008294;28;20202;-24
2023/07/31 04:30:43;;;;;;;5.10;3.72;;;20.30;99.90;;;;;;5009755;28;20216;-24
2023/07/31 04:33:11;;;;;;;5.70;3.33;;;20.30;99.90;;;;;;5025614;28;20205;-24
2023/07/31 04:35:38;;;;;;;3.80;3.28;;;20.30;99.90;;;;;;5014912;28;20226;-24
2023/07/31 04:38:05;;;;;;;7.95;3.53;;;20.30;99.90;;;;;;4988855;28;20206;-24
2023/07/31 04:40:32;;;;;;;5.32;3.60;;;20.30;99.90;;;;;;5001559;28;20308;-24
2023/07/31 04:43:02;;;;;;;5.50;3.47;;;20.30;99.90;;;;;;5023107;28;20204;-24
2023/07/31 04:45:31;;;;;;;8.77;3.45;;;20.30;99.90;;;;;;5039854;28;20564;-24
2023/07/31 04:47:58;;;;;;;7.78;3.55;;;20.30;99.90;;;;;;5003760;28;20830;-24
2023/07/31 04:50:26;;;;;;;5.68;3.50;;;20.30;99.90;;;;;;5011721;28;20601;-24
2023/07/31 04:52:53;;;;;;;6.53;3.90;;;20.30;99.90;;;;;;5023391;28;20212;-24
2023/07/31 04:55:20;;;;;;;6.95;3.53;;;20.30;99.90;;;;;;5025943;28;20217;-23
2023/07/31 04:57:48;;;;;;;5.53;3.40;;;20.30;99.90;;;;;;5013363;28;20197;-24
2023/07/31 05:00:15;;;;;;;4.47;3.15;;;20.30;99.90;;;;;;5019448;28;20675;-24
2023/07/31 05:02:42;;;;;;;6.57;3.38;;;20.30;99.90;;;;;;5020671;28;20209;-24
2023/07/31 05:05:09;;;;;;;5.80;3.83;;;20.30;99.90;;;;;;5018678;28;20206;-24
2023/07/31 05:07:50;;;;;;;4.95;3.50;;;20.30;99.90;;;;;;5013364;28;20221;-24
2023/07/31 05:10:20;;;;;;;5.43;3.33;;;20.30;99.90;;;;;;5018563;28;20232;-24
2023/07/31 05:12:47;;;;;;;5.97;3.80;;;20.30;99.90;;;;;;5018275;28;20211;-24
2023/07/31 05:15:14;;;;;;;6.93;3.35;;;20.30;99.90;;;;;;5016224;28;20635;-24
2023/07/31 05:17:42;;;;;;;4.32;3.20;;;20.30;99.90;;;;;;5009805;28;20264;-24
2023/07/31 05:20:12;;;;;;;5.75;3.70;;;20.30;99.90;;;;;;5022356;28;20294;-24
2023/07/31 05:22:44;;;;;;;4.97;2.95;;;20.30;99.90;;;;;;5009116;28;20645;-24
2023/07/31 05:25:11;;;;;;;5.57;3.50;;;20.30;99.90;;;;;;5011815;28;20592;-24
2023/07/31 05:27:39;;;;;;;5.63;3.30;;;20.20;99.90;;;;;;5010528;28;20209;-23
2023/07/31 05:30:07;;;;;;;5.68;3.20;;;20.20;99.90;;;;;;5015498;28;20217;-24
2023/07/31 05:32:36;;;;;;;5.18;2.85;;;20.20;99.90;;;;;;5021082;28;20200;-24
2023/07/31 05:35:04;;;;;;;5.10;3.33;;;20.20;99.90;;;;;;5024765;28;20217;-24
2023/07/31 05:37:31;;;;;;;5.07;3.10;;;20.20;99.90;;;;;;5026711;28;20263;-24
2023/07/31 05:40:00;;;;;;;4.68;3.28;;;20.20;99.90;;;;;;5027710;28;20233;-24
2023/07/31 05:42:36;;;;;;;5.88;3.22;;;20.20;99.90;;;;;;5013023;28;20202;-24
2023/07/31 05:45:05;;;;;;;8.68;4.13;;;20.20;99.90;;;;;;5006289;28;20214;-23
2023/07/31 05:47:34;;;;;;;8.13;4.03;;;20.20;99.90;;;;;;5017841;28;20249;-24
2023/07/31 05:50:02;;;;;;;5.32;3.65;;;20.10;99.90;;;;;;5009489;28;20206;-24
2023/07/31 05:52:31;;;;;;;5.60;3.63;;;20.10;99.90;;;;;;5012279;28;20229;-24
2023/07/31 05:55:01;;;;;;;6.22;4.05;;;20.10;99.90;;;;;;5023112;28;20249;-24
2023/07/31 05:57:28;;;;;;;6.85;4.15;;;20.10;99.90;;;;;;5014072;28;20225;-24
2023/07/31 05:59:55;;;;;;;5.55;3.22;;;20.10;99.90;;;;;;5024793;28;20240;-24
2023/07/31 06:02:25;;;;;;;6.97;3.40;;;20.00;99.90;;;;;;5016683;28;21304;-24
2023/07/31 06:04:56;;;;;;;6.15;3.58;;;20.00;99.90;;;;;;5014122;28;20746;-24
2023/07/31 06:07:24;;;;;;;6.45;3.72;;;20.00;99.90;;;;;;5024774;28;20310;-24
2023/07/31 06:09:51;;;;;;;8.35;4.28;;;20.00;99.90;;;;;;5035197;28;20205;-24
2023/07/31 06:12:21;;;;;;;6.97;4.13;;;20.00;99.90;;;;;;5020077;28;20204;-24
2023/07/31 06:14:48;;;;;;;5.47;3.35;;;20.00;99.90;;;;;;5016547;28;20239;-24
2023/07/31 06:17:21;;;;;;;6.80;3.35;;;20.00;99.90;;;;;;5008087;28;20205;-30
2023/07/31 06:19:49;;;;;;;5.85;3.65;;;19.90;99.90;;;;;;5026625;28;20742;-30
2023/07/31 06:22:16;;;;;;;5.57;3.47;;;19.90;99.90;;;;;;5025060;28;20209;-30
2023/07/31 06:24:44;;;;;;;5.47;3.20;;;19.90;99.90;;;;;;5004740;28;20212;-30
2023/07/31 06:27:13;;;;;;;6.80;3.30;;;19.90;99.90;;;;;;5029135;28;20205;-30
2023/07/31 06:29:43;;;;;;;7.15;3.97;;;19.90;99.90;;;;;;5019022;28;20233;-30
2023/07/31 06:32:10;;;;;;;5.53;3.15;;;19.90;99.90;;;;;;5027144;28;20205;-30
2023/07/31 06:34:38;;;;;;;4.95;3.28;;;19.90;99.90;;;;;;5013180;28;20220;-30
2023/07/31 06:37:10;;;;;;;5.30;3.15;;;19.90;99.90;;;;;;5024166;28;20200;-31
2023/07/31 06:39:42;;;;;;;8.20;3.80;;;19.90;99.90;;;;;;5001612;28;20230;-30
2023/07/31 06:42:09;;;;;;;7.45;3.70;;;19.90;99.90;;;;;;5008519;28;20279;-30
2023/07/31 06:44:36;;;;;;;6.82;3.58;;;19.90;99.90;;;;;;5013668;28;20210;-30
2023/07/31 06:47:08;;;;;;;6.32;3.95;;;19.90;99.90;;;;;;5012129;28;20264;-31
2023/07/31 06:49:35;;;;;;;5.88;3.75;;;19.90;99.90;;;;;;5011797;28;20608;-30
2023/07/31 06:52:05;;;;;;;5.63;3.70;;;19.90;99.90;;;;;;5025262;28;20684;-30
2023/07/31 06:54:33;;;;;;;6.55;3.75;;;19.90;99.90;;;;;;5019553;28;20219;-31
2023/07/31 06:57:00;;;;;;;5.68;3.40;;;19.90;99.90;;;;;;5008060;28;20246;-31
2023/07/31 06:59:27;;;;;;;5.88;3.38;;;20.00;99.90;;;;;;5007774;28;20567;-31
2023/07/31 07:01:54;;;;;;;6.15;3.20;;;20.00;99.90;;;;;;5020391;28;20208;-31
2023/07/31 07:04:26;;;;;;;5.40;3.58;;;20.00;99.90;;;;;;5016672;28;20625;-31
2023/07/31 07:06:54;;;;;;;5.63;2.90;;;20.00;99.90;;;;;;5014713;28;20209;-30
2023/07/31 07:09:21;;;;;;;4.28;3.08;;;20.00;99.90;;;;;;5016822;28;20215;-30
2023/07/31 07:11:50;;;;;;;4.35;3.13;;;20.10;99.90;;;;;;5028118;28;20209;-31
2023/07/31 07:14:17;;;;;;;7.28;3.30;;;20.10;99.90;;;;;;5020507;28;20291;-31
2023/07/31 07:16:51;;;;;;;4.95;3.20;;;20.10;99.90;;;;;;5023662;28;20225;-30
2023/07/31 07:19:18;;;;;;;7.18;3.50;;;20.20;99.90;;;;;;5021849;28;20602;-30
2023/07/31 07:21:47;;;;;;;6.10;3.33;;;20.20;99.90;;;;;;5016809;28;20380;-31
2023/07/31 07:24:17;;;;;;;7.68;3.42;;;20.20;99.90;;;;;;5019828;28;20586;-31
2023/07/31 07:26:49;;;;;;;6.03;3.45;;;20.20;99.90;;;;;;5009368;28;20213;-31
2023/07/31 07:29:16;;;;;;;6.75;4.05;;;20.30;99.90;;;;;;5020788;28;20633;-31
2023/07/31 07:31:43;;;;;;;5.15;3.25;;;20.20;99.90;;;;;;5020023;28;20711;-31
2023/07/31 07:34:13;;;;;;;5.07;3.40;;;20.30;99.90;;;;;;5008489;28;20224;-30
2023/07/31 07:36:43;;;;;;;5.38;3.50;;;20.30;99.90;;;;;;5013280;28;20390;-31
2023/07/31 07:39:16;;;;;;;7.28;3.50;;;20.30;99.90;;;;;;5063402;28;21068;-29
2023/07/31 07:41:43;;;;;;;5.88;3.58;;;20.40;99.90;;;;;;5055550;28;20585;-31
2023/07/31 07:44:11;;;;;;;6.45;3.55;;;20.40;99.90;;;;;;5022601;28;20197;-31
2023/07/31 07:46:40;;;;;;;5.57;3.20;;;20.50;99.90;;;;;;5053495;28;20235;-31
2023/07/31 07:49:10;;;;;;;7.85;3.00;;;20.50;99.90;;;;;;5041773;28;20211;-31
2023/07/31 07:51:38;;;;;;;5.18;3.28;;;20.50;99.90;;;;;;5041310;28;20287;-31
2023/07/31 07:54:05;;;;;;;7.80;3.13;;;20.50;99.90;;;;;;5042631;28;20719;-30
2023/07/31 07:56:36;;;;;;;6.45;3.28;;;20.50;99.90;;;;;;5030803;28;20205;-30
2023/07/31 07:59:06;;;;;;;5.40;3.30;;;20.50;99.90;;;;;;5041737;28;20239;-30
2023/07/31 08:01:33;;;;;;;6.63;3.80;;;20.60;99.90;;;;;;5041759;28;20200;-30
2023/07/31 08:04:01;;;;;;;4.53;3.38;;;20.50;99.90;;;;;;5042075;28;20208;-30
2023/07/31 08:06:30;;;;;;;7.88;3.50;;;20.60;99.90;;;;;;5046249;28;20189;-30
2023/07/31 08:08:57;;;;;;;5.60;3.10;;;20.60;99.90;;;;;;5054940;28;20724;-30
2023/07/31 08:11:27;;;;;;;5.90;3.10;;;20.60;99.90;;;;;;5056127;28;20581;-30
2023/07/31 08:13:57;;;;;;;5.88;3.40;;;20.60;99.90;;;;;;5063353;28;20210;-30
2023/07/31 08:16:24;;;;;;;6.70;3.00;;;20.60;99.90;;;;;;5052991;28;20709;-30
2023/07/31 08:18:51;;;;;;;4.85;3.10;;;20.60;99.90;;;;;;5050551;28;20441;-30
2023/07/31 08:21:21;;;;;;;6.18;3.03;;;20.60;99.90;;;;;;5049952;28;20204;-30
2023/07/31 08:23:51;;;;;;;6.38;2.95;;;20.70;99.90;;;;;;5046707;28;20203;-30
2023/07/31 08:26:19;;;;;;;5.15;2.88;;;20.70;99.90;;;;;;5030249;28;20213;-30
2023/07/31 08:28:46;;;;;;;5.45;3.35;;;20.70;99.90;;;;;;5023671;28;20217;-30
2023/07/31 08:31:13;;;;;;;8.25;3.08;;;20.70;99.90;;;;;;5026890;28;20287;-30
2023/07/31 08:33:41;;;;;;;4.80;2.67;;;20.70;99.90;;;;;;5061228;28;20223;-30
2023/07/31 08:36:13;;;;;;;7.95;2.92;;;20.80;99.90;;;;;;5050231;28;20223;-30
2023/07/31 08:38:40;;;;;;;4.07;2.67;;;20.80;99.90;;;;;;5038725;28;20244;-30
2023/07/31 08:41:07;;;;;;;6.75;2.78;;;20.80;99.90;;;;;;5049907;28;20200;-30
2023/07/31 08:43:36;;;;;;;5.30;2.60;;;20.80;99.90;;;;;;5042625;28;20208;-30
2023/07/31 08:46:05;;;;;;;5.18;2.80;;;20.90;99.90;;;;;;5033312;28;20197;-31
2023/07/31 08:48:37;;;;;;;4.18;2.85;;;20.90;99.90;;;;;;5018186;28;20205;-30
2023/07/31 08:51:04;;;;;;;5.18;3.00;;;20.90;99.90;;;;;;5015393;28;20233;-30
2023/07/31 08:53:34;;;;;;;4.95;3.00;;;20.90;99.90;;;;;;5032867;28;20224;-30
2023/07/31 08:56:05;;;;;;;5.15;2.65;;;20.90;99.90;;;;;;5028220;28;20201;-30
2023/07/31 08:58:33;;;;;;;4.10;2.33;;;20.90;99.90;;;;;;5006757;28;20768;-23
2023/07/31 09:01:03;;;;;;;5.07;3.08;;;20.90;99.90;;;;;;5008841;28;20751;-23
2023/07/31 09:03:35;;;;;;;4.10;2.53;;;20.90;99.90;;;;;;5017281;28;20259;-23
2023/07/31 09:06:09;;;;;;;4.97;2.55;;;20.90;99.90;;;;;;5015337;28;20283;-23
2023/07/31 09:08:40;;;;;;;4.53;2.40;;;20.90;99.90;;;;;;5024131;28;20208;-23
2023/07/31 09:11:07;;;;;;;3.95;2.65;;;20.90;99.90;;;;;;5027162;28;20278;-23
2023/07/31 09:13:35;;;;;;;4.78;2.88;;;20.90;99.90;;;;;;5040153;28;20927;-24
2023/07/31 09:16:04;;;;;;;5.03;2.60;;;20.90;99.90;;;;;;5025828;28;20201;-23
2023/07/31 09:18:54;;;;;;;4.20;2.42;;;20.90;99.90;;;;;;5011814;28;20233;-23
2023/07/31 09:21:21;;;;;;;2.50;2.30;;;20.90;99.90;;;;;;5009236;28;20892;-23
2023/07/31 09:23:54;;;;;;;6.93;2.67;;;20.90;99.90;;;;;;5008502;28;20270;-23
2023/07/31 09:26:38;;;;;;;3.47;2.50;;;20.90;99.90;;;;;;5017043;28;20249;-24
2023/07/31 09:29:19;;;;;;;4.20;2.53;;;20.90;99.90;;;;;;5028371;28;20315;-23
2023/07/31 09:31:54;;;;;;;3.92;2.47;;;20.90;99.90;;;;;;5007192;28;20212;-24
2023/07/31 09:34:38;;;;;;;4.70;2.88;;;20.90;99.90;;;;;;5027364;28;20311;-23
2023/07/31 09:37:08;;;;;;;5.65;3.10;;;20.90;99.90;;;;;;5025581;28;20590;-24
2023/07/31 09:39:46;;;;;;;6.03;2.67;;;20.90;99.90;;;;;;5025712;28;20629;-23
2023/07/31 09:42:14;;;;;;;3.45;2.50;;;20.90;99.90;;;;;;5030947;28;20288;-23
2023/07/31 09:44:43;;;;;;;6.55;2.70;;;20.90;99.90;;;;;;5027716;28;20732;-24
2023/07/31 09:47:24;;;;;;;6.07;3.13;;;20.90;99.90;;;;;;5026085;28;20371;-23
2023/07/31 09:49:52;;;;;;;3.38;2.75;;;20.90;99.90;;;;;;5024515;28;20563;-23
2023/07/31 09:52:20;;;;;;;5.00;3.22;;;21.00;99.90;;;;;;5028962;28;20209;-23
2023/07/31 09:54:47;;;;;;;4.75;2.80;;;21.00;99.90;;;;;;5024482;28;20216;-23
2023/07/31 09:57:17;;;;;;;4.10;2.80;;;21.10;99.90;;;;;;5033158;28;20737;-24
2023/07/31 09:59:49;;;;;;;6.90;3.20;;;21.20;99.90;;;;;;5045255;28;20286;-23
2023/07/31 10:02:23;;;;;;;6.82;3.15;;;21.20;99.90;;;;;;5065044;28;20652;-23
2023/07/31 10:04:56;;;;;;;5.82;3.28;;;21.30;99.90;;;;;;5008147;28;20219;-23
2023/07/31 10:07:25;;;;;;;5.65;3.20;;;21.40;99.90;;;;;;5025468;28;20194;-23
2023/07/31 10:09:55;;;;;;;5.13;3.22;;;21.40;99.90;;;;;;5026297;28;20201;-23
2023/07/31 10:12:29;;;;;;;5.03;3.05;;;21.40;99.90;;;;;;5022010;28;20220;-23
2023/07/31 10:14:56;;;;;;;4.90;3.17;;;21.50;99.90;;;;;;5023823;28;20237;-23
2023/07/31 10:17:27;;;;;;;5.65;3.50;;;21.50;99.90;;;;;;5022540;28;20197;-23
2023/07/31 10:19:58;;;;;;;6.85;3.85;;;21.50;99.90;;;;;;5019616;28;20232;-23
2023/07/31 10:22:27;;;;;;;5.90;3.65;;;21.50;99.90;;;;;;5018501;28;20286;-23
2023/07/31 10:24:57;;;;;;;5.18;3.83;;;21.60;99.90;;;;;;5023070;28;20201;-23
2023/07/31 10:27:27;;;;;;;7.78;4.10;;;21.60;99.90;;;;;;5018358;28;20202;-23
2023/07/31 10:29:58;;;;;;;5.70;3.67;;;21.60;99.90;;;;;;5040012;28;20216;-23
2023/07/31 10:32:30;;;;;;;6.82;4.00;;;21.60;99.90;;;;;;5019147;28;20629;-23
2023/07/31 10:34:58;;;;;;;6.72;3.80;;;21.60;99.90;;;;;;5036731;28;20248;-30
2023/07/31 10:37:44;;;;;;;9.60;4.00;;;21.70;99.90;;;;;;5029864;28;20232;-29
2023/07/31 10:40:17;;;;;;;5.03;3.75;;;21.70;99.90;;;;;;5022749;28;20213;-30
2023/07/31 10:42:57;;;;;;;8.98;3.95;;;21.70;99.90;;;;;;5010584;28;20213;-30
2023/07/31 10:45:39;;;;;;;5.65;3.70;;;21.70;99.90;;;;;;5022430;28;20215;-30
2023/07/31 10:48:12;;;;;;;6.78;3.78;;;21.80;99.90;;;;;;5017889;28;20217;-30
2023/07/31 10:50:49;;;;;;;6.55;3.75;;;21.90;99.90;;;;;;5007725;28;20322;-30
2023/07/31 10:53:31;;;;;;;7.20;4.47;;;21.90;99.90;;;;;;5028696;28;20315;-30
2023/07/31 10:56:06;;;;;;;6.18;3.97;;;21.90;99.90;;;;;;5029034;28;20721;-30
2023/07/31 10:58:34;;;;;;;8.13;4.75;;;22.00;99.90;;;;;;5017471;28;20701;-30
2023/07/31 11:01:05;;;;;;;6.72;3.97;;;22.00;99.90;;;;;;5038432;28;20293;-30
2023/07/31 11:03:53;;;;;;;7.60;4.32;;;22.00;99.90;;;;;;5026573;28;20201;-29
2023/07/31 11:06:20;;;;;;;7.07;4.53;;;22.00;99.90;;;;;;5005740;28;20210;-30
2023/07/31 11:08:49;;;;;;;8.00;4.50;;;22.00;99.90;;;;;;5013620;28;20283;-30
2023/07/31 11:11:20;;;;;;;8.45;4.78;;;22.00;99.90;;;;;;5008067;28;20421;-30
2023/07/31 11:13:50;;;;;;;8.55;4.78;;;22.00;99.90;;;;;;5006623;28;20580;-30
2023/07/31 11:16:32;;;;;;;7.95;4.50;;;22.10;99.90;;;;;;5019042;28;20301;-30
2023/07/31 11:19:02;;;;;;;7.68;4.20;;;22.10;99.90;;;;;;5004009;28;20257;-30
2023/07/31 11:21:32;;;;;;;6.13;4.22;;;22.20;99.90;;;;;;5009061;28;20238;-30
2023/07/31 11:23:59;;;;;;;6.85;3.92;;;22.20;99.90;;;;;;5013183;28;20259;-30
2023/07/31 11:26:27;;;;;;;6.32;4.50;;;22.20;99.90;;;;;;5008975;28;20208;-30
2023/07/31 11:28:57;;;;;;;8.18;4.57;;;22.20;99.90;;;;;;5011813;28;20683;-30
2023/07/31 11:31:24;;;;;;;9.13;4.15;;;22.30;99.90;;;;;;5013075;28;20207;-30
2023/07/31 11:34:07;;;;;;;7.80;4.78;;;22.30;99.90;;;;;;5017494;28;20715;-30
2023/07/31 11:36:34;;;;;;;7.68;4.28;;;22.40;99.90;;;;;;5026494;28;20216;-30
2023/07/31 11:39:06;;;;;;;8.32;4.38;;;22.40;99.90;;;;;;5022502;28;20282;-30
2023/07/31 11:41:33;;;;;;;6.93;4.40;;;22.40;99.90;;;;;;5024144;28;20334;-30
2023/07/31 11:44:01;;;;;;;9.63;4.45;;;22.40;99.90;;;;;;5032330;28;20205;-30
2023/07/31 11:46:47;;;;;;;10.93;4.95;;;22.50;99.90;;;;;;5005075;28;20205;-30
2023/07/31 11:49:15;;;;;;;8.00;4.65;;;22.50;99.90;;;;;;5020895;28;20577;-30
2023/07/31 11:51:48;;;;;;;7.05;4.28;;;22.50;99.90;;;;;;5023687;28;20284;-30
2023/07/31 11:54:18;;;;;;;9.10;4.70;;;22.60;99.90;;;;;;5014559;28;20211;-30
2023/07/31 11:56:49;;;;;;;10.13;4.30;;;22.50;99.90;;;;;;5015819;28;20638;-30
2023/07/31 11:59:19;;;;;;;8.13;4.45;;;22.50;99.90;;;;;;5017813;28;20216;-30
2023/07/31 12:01:49;;;;;;;6.50;4.05;;;22.50;99.90;;;;;;5023079;28;20205;-30
2023/07/31 12:04:19;;;;;;;7.50;4.53;;;22.60;99.90;;;;;;5016143;28;20193;-31
2023/07/31 12:06:47;;;;;;;7.05;4.47;;;22.60;99.90;;;;;;5024969;28;20213;-30
2023/07/31 12:09:16;;;;;;;6.35;4.28;;;22.60;99.90;;;;;;5022754;28;20626;-30
2023/07/31 12:11:44;;;;;;;6.65;4.30;;;22.60;99.90;;;;;;5019143;28;20221;-30
2023/07/31 12:14:22;;;;;;;7.97;4.20;;;22.60;99.90;;;;;;5028450;28;20634;-31
2023/07/31 12:16:57;;;;;;;8.98;4.30;;;22.60;99.90;;;;;;5011764;28;20225;-30
2023/07/31 12:19:29;;;;;;;9.00;4.40;;;22.70;99.90;;;;;;5025793;28;20224;-30
2023/07/31 12:21:59;;;;;;;7.95;3.85;;;22.70;99.90;;;;;;5009571;28;20982;-30
2023/07/31 12:24:27;;;;;;;9.38;4.25;;;22.70;99.90;;;;;;5036586;28;20192;-23
2023/07/31 12:26:56;;;;;;;8.52;4.35;;;22.70;99.90;;;;;;5012227;28;20209;-23
2023/07/31 12:29:23;;;;;;;7.20;4.13;;;22.70;99.90;;;;;;5028036;28;20287;-23
2023/07/31 12:31:51;;;;;;;7.57;4.10;;;22.70;99.90;;;;;;5027328;28;20208;-23
2023/07/31 12:34:21;;;;;;;7.03;4.15;;;22.70;99.90;;;;;;5040201;28;20208;-23
2023/07/31 12:36:53;;;;;;;12.73;4.57;;;22.70;99.90;;;;;;5007374;28;20706;-23
2023/07/31 12:39:20;;;;;;;9.05;4.57;;;22.70;99.90;;;;;;5037656;28;20693;-23
2023/07/31 12:41:52;;;;;;;6.68;4.32;;;22.70;99.90;;;;;;5022104;28;20694;-23
2023/07/31 12:44:20;;;;;;;9.10;4.65;;;22.70;99.90;;;;;;5015557;28;20224;-23
2023/07/31 12:46:47;;;;;;;7.88;4.72;;;22.70;99.90;;;;;;5029779;28;20575;-22
2023/07/31 12:49:14;;;;;;;9.77;4.15;;;22.80;99.90;;;;;;5025633;28;20201;-23
2023/07/31 12:51:41;;;;;;;7.78;4.20;;;22.80;99.90;;;;;;5024984;28;20209;-23
2023/07/31 12:54:10;;;;;;;6.13;4.68;;;22.80;99.90;;;;;;5037424;28;20243;-23
2023/07/31 12:56:38;;;;;;;9.85;4.80;;;22.80;99.90;;;;;;5026874;28;20220;-23
2023/07/31 12:59:06;;;;;;;6.88;4.60;;;22.80;99.90;;;;;;5023254;28;20255;-23